sensor_id;sensor_type;location;lat;lon;timestamp;pressure;altitude;pressure_sealevel;temperature;humidity
37648;BME280;23490;53.656;10.076;2023-08-12T00:01:03;97570.13;;;-145.95;84.22
37648;BME280;23490;53.656;10.076;2023-08-12T00:03:28;97584.59;;;-145.95;84.56
37648;BME280;23490;53.656;10.076;2023-08-12T00:05:54;97621.75;;;-145.95;85.04
37648;BME280;23490;53.656;10.076;2023-08-12T00:08:20;97638.25;;;-145.95;85.33
37648;BME280;23490;53.656;10.076;2023-08-12T00:10:45;97568.06;;;-145.95;84.47
37648;BME280;23490;53.656;10.076;2023-08-12T00:13:11;97594.91;;;-145.95;84.22
37648;BME280;23490;53.656;10.076;2023-08-12T00:15:38;97654.75;;;-145.95;84.57
37648;BME280;23490;53.656;10.076;2023-08-12T00:18:05;97642.38;;;-145.95;83.73
37648;BME280;23490;53.656;10.076;2023-08-12T00:20:31;97572.19;;;-145.95;83.61
37648;BME280;23490;53.656;10.076;2023-08-12T00:22:57;97592.84;;;-145.95;83.05
37648;BME280;23490;53.656;10.076;2023-08-12T00:25:22;97584.59;;;-145.95;82.61
37648;BME280;23490;53.656;10.076;2023-08-12T00:27:47;97646.50;;;-145.95;83.78
37648;BME280;23490;53.656;10.076;2023-08-12T00:30:13;97590.78;;;-145.95;84.63
37648;BME280;23490;53.656;10.076;2023-08-12T00:32:38;97586.66;;;-145.95;84.67
37648;BME280;23490;53.656;10.076;2023-08-12T00:35:04;97588.72;;;-145.95;84.34
37648;BME280;23490;53.656;10.076;2023-08-12T00:37:30;97605.22;;;-145.95;84.68
37648;BME280;23490;53.656;10.076;2023-08-12T00:39:55;97625.88;;;-145.95;84.00
37648;BME280;23490;53.656;10.076;2023-08-12T00:42:21;97594.91;;;-145.95;84.22
37648;BME280;23490;53.656;10.076;2023-08-12T00:44:46;97650.63;;;-145.95;85.46
37648;BME280;23490;53.656;10.076;2023-08-12T00:47:12;97632.06;;;-145.95;85.37
37648;BME280;23490;53.656;10.076;2023-08-12T00:49:39;97638.25;;;-145.95;84.77
37648;BME280;23490;53.656;10.076;2023-08-12T00:52:05;97642.38;;;-145.95;85.56
37648;BME280;23490;53.656;10.076;2023-08-12T00:54:31;97621.75;;;-145.95;84.82
37648;BME280;23490;53.656;10.076;2023-08-12T00:56:56;97636.19;;;-145.95;84.00
37648;BME280;23490;53.656;10.076;2023-08-12T00:59:22;97613.47;;;-145.95;83.92
37648;BME280;23490;53.656;10.076;2023-08-12T01:01:48;97630.00;;;-145.95;83.42
37648;BME280;23490;53.656;10.076;2023-08-12T01:04:14;97592.84;;;-145.95;83.31
37648;BME280;23490;53.656;10.076;2023-08-12T01:06:40;97605.22;;;-145.95;83.83
37648;BME280;23490;53.656;10.076;2023-08-12T01:09:06;97601.09;;;-145.95;84.29
37648;BME280;23490;53.656;10.076;2023-08-12T01:11:36;97669.22;;;-145.95;84.95
37648;BME280;23490;53.656;10.076;2023-08-12T01:14:16;97642.38;;;-145.95;84.12
37648;BME280;23490;53.656;10.076;2023-08-12T01:16:45;97687.78;;;-145.95;84.40
37648;BME280;23490;53.656;10.076;2023-08-12T01:19:21;97638.25;;;-145.95;84.67
37648;BME280;23490;53.656;10.076;2023-08-12T01:21:52;97667.16;;;-145.95;85.88
37648;BME280;23490;53.656;10.076;2023-08-12T01:24:21;97687.78;;;-145.95;84.97
37648;BME280;23490;53.656;10.076;2023-08-12T01:26:46;97708.44;;;-145.95;85.61
37648;BME280;23490;53.656;10.076;2023-08-12T01:29:12;97675.41;;;-145.95;87.34
37648;BME280;23490;53.656;10.076;2023-08-12T01:31:45;97706.38;;;-145.95;86.68
37648;BME280;23490;53.656;10.076;2023-08-12T01:34:38;97685.72;;;-145.95;88.36
37648;BME280;23490;53.656;10.076;2023-08-12T01:37:05;97704.31;;;-145.95;87.50
37648;BME280;23490;53.656;10.076;2023-08-12T01:39:35;97642.38;;;-145.95;87.85
37648;BME280;23490;53.656;10.076;2023-08-12T01:42:01;97689.84;;;-145.95;88.17
37648;BME280;23490;53.656;10.076;2023-08-12T01:44:27;97675.41;;;-145.95;87.58
37648;BME280;23490;53.656;10.076;2023-08-12T01:46:53;97741.47;;;-145.95;86.95
37648;BME280;23490;53.656;10.076;2023-08-12T01:49:19;97691.91;;;-145.95;86.83
37648;BME280;23490;53.656;10.076;2023-08-12T01:51:44;97704.31;;;-145.95;86.64
37648;BME280;23490;53.656;10.076;2023-08-12T01:54:09;97675.41;;;-145.95;87.28
37648;BME280;23490;53.656;10.076;2023-08-12T01:56:35;97727.00;;;-145.95;89.26
37648;BME280;23490;53.656;10.076;2023-08-12T01:59:00;97727.00;;;-145.95;89.14
37648;BME280;23490;53.656;10.076;2023-08-12T02:01:26;97751.78;;;-145.95;88.81
37648;BME280;23490;53.656;10.076;2023-08-12T02:03:51;97795.13;;;-145.95;88.54
37648;BME280;23490;53.656;10.076;2023-08-12T02:06:16;97733.22;;;-145.95;90.21
37648;BME280;23490;53.656;10.076;2023-08-12T02:08:42;97778.63;;;-145.95;90.05
37648;BME280;23490;53.656;10.076;2023-08-12T02:11:07;97718.75;;;-145.95;90.03
37648;BME280;23490;53.656;10.076;2023-08-12T02:13:32;97720.81;;;-145.95;89.44
37648;BME280;23490;53.656;10.076;2023-08-12T02:15:58;97753.84;;;-145.95;89.42
37648;BME280;23490;53.656;10.076;2023-08-12T02:18:23;97770.34;;;-145.95;91.12
37648;BME280;23490;53.656;10.076;2023-08-12T02:20:49;97832.28;;;-145.95;92.39
37648;BME280;23490;53.656;10.076;2023-08-12T02:23:14;97807.53;;;-145.95;92.15
37648;BME280;23490;53.656;10.076;2023-08-12T02:25:39;97797.19;;;-145.95;92.00
37648;BME280;23490;53.656;10.076;2023-08-12T02:28:05;97757.97;;;-145.95;91.75
37648;BME280;23490;53.656;10.076;2023-08-12T02:30:30;97815.78;;;-145.95;94.03
37648;BME280;23490;53.656;10.076;2023-08-12T02:32:56;97774.50;;;-145.95;93.08
37648;BME280;23490;53.656;10.076;2023-08-12T02:35:21;97770.34;;;-145.95;92.79
37648;BME280;23490;53.656;10.076;2023-08-12T02:37:48;97848.81;;;-145.95;92.07
37648;BME280;23490;53.656;10.076;2023-08-12T02:40:14;97832.28;;;-145.95;92.67
37648;BME280;23490;53.656;10.076;2023-08-12T02:42:39;97836.41;;;-145.95;93.21
37648;BME280;23490;53.656;10.076;2023-08-12T02:45:05;97764.16;;;-145.95;93.16
37648;BME280;23490;53.656;10.076;2023-08-12T02:47:30;97821.97;;;-145.95;93.63
37648;BME280;23490;53.656;10.076;2023-08-12T02:49:56;97788.94;;;-145.95;94.85
37648;BME280;23490;53.656;10.076;2023-08-12T02:52:21;97857.06;;;-145.95;94.37
37648;BME280;23490;53.656;10.076;2023-08-12T02:54:47;97875.63;;;-145.95;94.32
37648;BME280;23490;53.656;10.076;2023-08-12T02:57:12;97811.66;;;-145.95;94.47
37648;BME280;23490;53.656;10.076;2023-08-12T02:59:37;97821.97;;;-145.95;96.21
37648;BME280;23490;53.656;10.076;2023-08-12T03:02:04;97807.53;;;-145.95;94.90
37648;BME280;23490;53.656;10.076;2023-08-12T03:04:29;97836.41;;;-145.95;95.28
37648;BME280;23490;53.656;10.076;2023-08-12T03:06:54;97844.66;;;-145.95;96.60
37648;BME280;23490;53.656;10.076;2023-08-12T03:09:20;97869.44;;;-145.95;96.08
37648;BME280;23490;53.656;10.076;2023-08-12T03:11:45;97815.78;;;-145.95;95.67
37648;BME280;23490;53.656;10.076;2023-08-12T03:14:10;97865.31;;;-145.95;97.23
37648;BME280;23490;53.656;10.076;2023-08-12T03:16:36;97811.66;;;-145.95;97.11
37648;BME280;23490;53.656;10.076;2023-08-12T03:19:01;97832.28;;;-145.95;97.78
37648;BME280;23490;53.656;10.076;2023-08-12T03:21:26;97850.88;;;-145.95;98.04
37648;BME280;23490;53.656;10.076;2023-08-12T03:23:52;97900.41;;;-145.95;98.47
37648;BME280;23490;53.656;10.076;2023-08-12T03:26:17;97819.91;;;-145.95;98.02
37648;BME280;23490;53.656;10.076;2023-08-12T03:28:43;97873.56;;;-145.95;98.68
37648;BME280;23490;53.656;10.076;2023-08-12T03:31:08;97875.63;;;-145.95;98.61
37648;BME280;23490;53.656;10.076;2023-08-12T03:33:33;97844.66;;;-145.95;98.13
37648;BME280;23490;53.656;10.076;2023-08-12T03:35:59;97865.31;;;-145.95;98.03
37648;BME280;23490;53.656;10.076;2023-08-12T03:38:24;97873.56;;;-145.95;97.70
37648;BME280;23490;53.656;10.076;2023-08-12T03:40:50;97877.69;;;-145.95;98.04
37648;BME280;23490;53.656;10.076;2023-08-12T03:43:15;97873.56;;;-145.95;98.60
37648;BME280;23490;53.656;10.076;2023-08-12T03:45:42;97914.84;;;-145.95;98.92
37648;BME280;23490;53.656;10.076;2023-08-12T03:48:08;97912.78;;;-145.95;99.10
37648;BME280;23490;53.656;10.076;2023-08-12T03:50:37;97908.66;;;-145.95;99.38
37648;BME280;23490;53.656;10.076;2023-08-12T03:53:03;97885.97;;;-145.95;99.62
37648;BME280;23490;53.656;10.076;2023-08-12T03:55:33;97910.72;;;-145.95;100.00
37648;BME280;23490;53.656;10.076;2023-08-12T03:57:59;97956.16;;;-145.95;100.00
37648;BME280;23490;53.656;10.076;2023-08-12T04:00:25;97949.94;;;-145.95;99.40
37648;BME280;23490;53.656;10.076;2023-08-12T04:02:50;97919.00;;;-145.95;99.31
37648;BME280;23490;53.656;10.076;2023-08-12T04:05:15;97898.34;;;-145.95;99.60
37648;BME280;23490;53.656;10.076;2023-08-12T04:07:41;97935.50;;;-145.95;100.00
37648;BME280;23490;53.656;10.076;2023-08-12T04:10:07;97976.78;;;-145.95;100.00
37648;BME280;23490;53.656;10.076;2023-08-12T04:12:32;97980.91;;;-145.95;99.71
37648;BME280;23490;53.656;10.076;2023-08-12T04:14:58;97888.03;;;-145.95;99.96
37648;BME280;23490;53.656;10.076;2023-08-12T04:17:23;97914.84;;;-145.95;100.00
37648;BME280;23490;53.656;10.076;2023-08-12T04:19:48;97914.84;;;-145.95;100.00
37648;BME280;23490;53.656;10.076;2023-08-12T04:22:14;97964.41;;;-145.95;100.00
37648;BME280;23490;53.656;10.076;2023-08-12T04:24:40;97935.50;;;-145.95;100.00
37648;BME280;23490;53.656;10.076;2023-08-12T04:27:05;97939.63;;;-145.95;100.00
37648;BME280;23490;53.656;10.076;2023-08-12T04:29:30;97952.00;;;-145.95;100.00
37648;BME280;23490;53.656;10.076;2023-08-12T04:31:56;97952.00;;;-145.95;100.00
37648;BME280;23490;53.656;10.076;2023-08-12T04:34:21;97929.31;;;-145.95;100.00
37648;BME280;23490;53.656;10.076;2023-08-12T04:36:46;97910.72;;;-145.95;99.97
37648;BME280;23490;53.656;10.076;2023-08-12T04:39:12;97912.78;;;-145.95;99.50
37648;BME280;23490;53.656;10.076;2023-08-12T04:41:37;97885.97;;;-145.95;98.75
37648;BME280;23490;53.656;10.076;2023-08-12T04:44:05;97869.44;;;-145.95;98.72
37648;BME280;23490;53.656;10.076;2023-08-12T04:46:30;97912.78;;;-145.95;99.35
37648;BME280;23490;53.656;10.076;2023-08-12T04:48:56;97873.56;;;-145.95;100.00
37648;BME280;23490;53.656;10.076;2023-08-12T04:51:21;97956.16;;;-145.95;100.00
37648;BME280;23490;53.656;10.076;2023-08-12T04:53:46;97943.75;;;-145.95;100.00
37648;BME280;23490;53.656;10.076;2023-08-12T04:56:12;97910.72;;;-145.95;99.71
37648;BME280;23490;53.656;10.076;2023-08-12T04:58:37;97923.13;;;-145.95;100.00
37648;BME280;23490;53.656;10.076;2023-08-12T05:01:03;97894.22;;;-145.95;99.95
37648;BME280;23490;53.656;10.076;2023-08-12T05:03:28;97908.66;;;-145.95;99.82
37648;BME280;23490;53.656;10.076;2023-08-12T05:05:54;97852.94;;;-145.95;99.58
37648;BME280;23490;53.656;10.076;2023-08-12T05:08:19;97857.06;;;-145.95;99.34
37648;BME280;23490;53.656;10.076;2023-08-12T05:10:48;97873.56;;;-145.95;100.00
37648;BME280;23490;53.656;10.076;2023-08-12T05:13:14;97877.69;;;-145.95;99.69
37648;BME280;23490;53.656;10.076;2023-08-12T05:15:39;97898.34;;;-145.95;100.00
37648;BME280;23490;53.656;10.076;2023-08-12T05:18:05;97910.72;;;-145.95;100.00
37648;BME280;23490;53.656;10.076;2023-08-12T05:20:31;97883.91;;;-145.95;100.00
37648;BME280;23490;53.656;10.076;2023-08-12T05:22:56;97894.22;;;-145.95;100.00
37648;BME280;23490;53.656;10.076;2023-08-12T05:25:21;97925.19;;;-145.95;100.00
37648;BME280;23490;53.656;10.076;2023-08-12T05:27:47;97910.72;;;-145.95;100.00
37648;BME280;23490;53.656;10.076;2023-08-12T05:30:12;97873.56;;;-145.95;100.00
37648;BME280;23490;53.656;10.076;2023-08-12T05:32:38;97877.69;;;-145.95;100.00
37648;BME280;23490;53.656;10.076;2023-08-12T05:35:03;97848.81;;;-145.95;100.00
37648;BME280;23490;53.656;10.076;2023-08-12T05:37:29;97852.94;;;-145.95;100.00
37648;BME280;23490;53.656;10.076;2023-08-12T05:39:55;97815.78;;;-145.95;100.00
37648;BME280;23490;53.656;10.076;2023-08-12T05:42:20;97914.84;;;-145.95;100.00
37648;BME280;23490;53.656;10.076;2023-08-12T05:44:45;97927.25;;;-145.95;100.00
37648;BME280;23490;53.656;10.076;2023-08-12T05:47:11;97881.84;;;-145.95;100.00
37648;BME280;23490;53.656;10.076;2023-08-12T05:49:36;97857.06;;;-145.95;100.00
37648;BME280;23490;53.656;10.076;2023-08-12T05:52:01;97873.56;;;-145.95;100.00
37648;BME280;23490;53.656;10.076;2023-08-12T05:54:27;97828.16;;;-145.95;100.00
37648;BME280;23490;53.656;10.076;2023-08-12T05:56:52;97830.22;;;-145.95;100.00
37648;BME280;23490;53.656;10.076;2023-08-12T05:59:17;97848.81;;;-145.95;100.00
37648;BME280;23490;53.656;10.076;2023-08-12T06:01:43;97914.84;;;-145.95;100.00
37648;BME280;23490;53.656;10.076;2023-08-12T06:04:08;97846.75;;;-145.95;100.00
37648;BME280;23490;53.656;10.076;2023-08-12T06:06:36;97840.53;;;-145.95;100.00
37648;BME280;23490;53.656;10.076;2023-08-12T06:09:01;97852.94;;;-145.95;100.00
37648;BME280;23490;53.656;10.076;2023-08-12T06:11:26;97865.31;;;-145.95;100.00
37648;BME280;23490;53.656;10.076;2023-08-12T06:13:52;97865.31;;;-145.95;100.00
37648;BME280;23490;53.656;10.076;2023-08-12T06:16:17;97832.28;;;-145.95;100.00
37648;BME280;23490;53.656;10.076;2023-08-12T06:18:43;97840.53;;;-145.95;100.00
37648;BME280;23490;53.656;10.076;2023-08-12T06:21:08;97848.81;;;-145.95;100.00
37648;BME280;23490;53.656;10.076;2023-08-12T06:23:33;97919.00;;;-145.95;100.00
37648;BME280;23490;53.656;10.076;2023-08-12T06:26:02;97881.84;;;-145.95;100.00
37648;BME280;23490;53.656;10.076;2023-08-12T06:28:27;97848.81;;;-145.95;100.00
37648;BME280;23490;53.656;10.076;2023-08-12T06:30:53;97824.03;;;-145.95;100.00
37648;BME280;23490;53.656;10.076;2023-08-12T06:33:18;97937.56;;;-145.95;100.00
37648;BME280;23490;53.656;10.076;2023-08-12T06:35:44;97869.44;;;-145.95;100.00
37648;BME280;23490;53.656;10.076;2023-08-12T06:38:09;97848.81;;;-145.95;100.00
37648;BME280;23490;53.656;10.076;2023-08-12T06:40:38;97834.34;;;-145.95;100.00
37648;BME280;23490;53.656;10.076;2023-08-12T06:43:04;97883.91;;;-145.95;100.00
37648;BME280;23490;53.656;10.076;2023-08-12T06:45:29;97877.69;;;-145.95;100.00
37648;BME280;23490;53.656;10.076;2023-08-12T06:47:55;97912.78;;;-145.95;100.00
37648;BME280;23490;53.656;10.076;2023-08-12T06:50:20;97869.44;;;-145.95;100.00
37648;BME280;23490;53.656;10.076;2023-08-12T06:52:45;97873.56;;;-145.95;100.00
37648;BME280;23490;53.656;10.076;2023-08-12T06:55:11;97852.94;;;-145.95;100.00
37648;BME280;23490;53.656;10.076;2023-08-12T06:57:36;97906.59;;;-145.95;100.00
37648;BME280;23490;53.656;10.076;2023-08-12T07:00:02;97848.81;;;-145.95;100.00
37648;BME280;23490;53.656;10.076;2023-08-12T07:02:28;97859.13;;;-145.95;100.00
37648;BME280;23490;53.656;10.076;2023-08-12T07:04:53;97865.31;;;-145.95;100.00
37648;BME280;23490;53.656;10.076;2023-08-12T07:07:19;97910.72;;;-145.95;100.00
37648;BME280;23490;53.656;10.076;2023-08-12T07:09:44;97885.97;;;-145.95;100.00
37648;BME280;23490;53.656;10.076;2023-08-12T07:12:09;97890.09;;;-145.95;100.00
37648;BME280;23490;53.656;10.076;2023-08-12T07:14:37;97832.28;;;-145.95;100.00
37648;BME280;23490;53.656;10.076;2023-08-12T07:17:03;97788.94;;;-145.95;100.00
37648;BME280;23490;53.656;10.076;2023-08-12T07:19:28;97801.31;;;-145.95;100.00
37648;BME280;23490;53.656;10.076;2023-08-12T07:21:53;97764.16;;;-145.95;100.00
37648;BME280;23490;53.656;10.076;2023-08-12T07:24:19;97799.25;;;-145.95;100.00
37648;BME280;23490;53.656;10.076;2023-08-12T07:26:44;97766.22;;;-145.95;100.00
37648;BME280;23490;53.656;10.076;2023-08-12T07:29:09;97708.44;;;-145.95;100.00
37648;BME280;23490;53.656;10.076;2023-08-12T07:31:38;97749.72;;;-145.95;100.00
37648;BME280;23490;53.656;10.076;2023-08-12T07:34:03;97737.34;;;-145.95;100.00
37648;BME280;23490;53.656;10.076;2023-08-12T07:36:29;97770.34;;;-145.95;100.00
37648;BME280;23490;53.656;10.076;2023-08-12T07:38:54;97720.81;;;-145.95;100.00
37648;BME280;23490;53.656;10.076;2023-08-12T07:41:20;97716.69;;;-145.95;100.00
37648;BME280;23490;53.656;10.076;2023-08-12T07:43:45;97710.50;;;-145.95;100.00
37648;BME280;23490;53.656;10.076;2023-08-12T07:46:10;97691.91;;;-145.95;100.00
37648;BME280;23490;53.656;10.076;2023-08-12T07:48:36;97731.13;;;-145.95;100.00
37648;BME280;23490;53.656;10.076;2023-08-12T07:51:02;97673.34;;;-145.95;100.00
37648;BME280;23490;53.656;10.076;2023-08-12T07:53:28;97642.38;;;-145.95;100.00
37648;BME280;23490;53.656;10.076;2023-08-12T07:55:53;97683.66;;;-145.95;100.00
37648;BME280;23490;53.656;10.076;2023-08-12T07:58:18;97576.31;;;-145.95;100.00
37648;BME280;23490;53.656;10.076;2023-08-12T08:00:45;97632.06;;;-145.95;100.00
37648;BME280;23490;53.656;10.076;2023-08-12T08:03:10;97568.06;;;-145.95;100.00
37648;BME280;23490;53.656;10.076;2023-08-12T08:05:40;97568.06;;;-145.95;100.00
37648;BME280;23490;53.656;10.076;2023-08-12T08:08:05;97572.19;;;-145.95;100.00
37648;BME280;23490;53.656;10.076;2023-08-12T08:10:30;97605.22;;;-145.95;100.00
37648;BME280;23490;53.656;10.076;2023-08-12T08:12:56;97605.22;;;-145.95;100.00
37648;BME280;23490;53.656;10.076;2023-08-12T08:15:21;97532.97;;;-145.95;100.00
37648;BME280;23490;53.656;10.076;2023-08-12T08:17:46;97563.94;;;-145.95;100.00
37648;BME280;23490;53.656;10.076;2023-08-12T08:20:12;97557.75;;;-145.95;100.00
37648;BME280;23490;53.656;10.076;2023-08-12T08:22:37;97510.28;;;-145.95;100.00
37648;BME280;23490;53.656;10.076;2023-08-12T08:25:03;97506.16;;;-145.95;100.00
37648;BME280;23490;53.656;10.076;2023-08-12T08:27:29;97469.00;;;-145.95;100.00
37648;BME280;23490;53.656;10.076;2023-08-12T08:29:54;97423.59;;;-145.95;100.00
37648;BME280;23490;53.656;10.076;2023-08-12T08:32:20;97462.81;;;-145.95;100.00
37648;BME280;23490;53.656;10.076;2023-08-12T08:34:45;97502.03;;;-145.95;100.00
37648;BME280;23490;53.656;10.076;2023-08-12T08:37:10;97485.50;;;-145.95;100.00
37648;BME280;23490;53.656;10.076;2023-08-12T08:39:36;97386.44;;;-145.95;100.00
37648;BME280;23490;53.656;10.076;2023-08-12T08:42:05;97516.47;;;-145.95;100.00
37648;BME280;23490;53.656;10.076;2023-08-12T08:44:33;97452.47;;;-145.95;100.00
37648;BME280;23490;53.656;10.076;2023-08-12T08:46:59;97433.91;;;-145.95;100.00
37648;BME280;23490;53.656;10.076;2023-08-12T08:49:28;97419.47;;;-145.95;100.00
37648;BME280;23490;53.656;10.076;2023-08-12T08:51:56;97365.78;;;-145.95;100.00
37648;BME280;23490;53.656;10.076;2023-08-12T08:54:22;97429.78;;;-145.95;100.00
37648;BME280;23490;53.656;10.076;2023-08-12T08:56:49;97349.28;;;-145.95;100.00
37648;BME280;23490;53.656;10.076;2023-08-12T08:59:14;97407.06;;;-145.95;100.00
37648;BME280;23490;53.656;10.076;2023-08-12T09:01:40;97363.72;;;-145.95;100.00
37648;BME280;23490;53.656;10.076;2023-08-12T09:04:07;97369.91;;;-145.95;100.00
37648;BME280;23490;53.656;10.076;2023-08-12T09:06:33;97386.44;;;-145.95;100.00
37648;BME280;23490;53.656;10.076;2023-08-12T09:09:00;97320.38;;;-145.95;100.00
37648;BME280;23490;53.656;10.076;2023-08-12T09:11:26;97341.03;;;-145.95;100.00
37648;BME280;23490;53.656;10.076;2023-08-12T09:13:52;97303.88;;;-145.95;100.00
37648;BME280;23490;53.656;10.076;2023-08-12T09:16:18;97332.78;;;-145.95;99.14
37648;BME280;23490;53.656;10.076;2023-08-12T09:18:43;97316.25;;;-145.95;99.43
37648;BME280;23490;53.656;10.076;2023-08-12T09:21:09;97332.78;;;-145.95;96.34
37648;BME280;23490;53.656;10.076;2023-08-12T09:23:42;97258.47;;;-145.95;93.10
37648;BME280;23490;53.656;10.076;2023-08-12T09:26:14;97308.00;;;-145.95;91.70
37648;BME280;23490;53.656;10.076;2023-08-12T09:28:40;97347.22;;;-145.95;96.42
37648;BME280;23490;53.656;10.076;2023-08-12T09:31:06;97266.72;;;-145.95;92.93
37648;BME280;23490;53.656;10.076;2023-08-12T09:33:32;97299.75;;;-145.95;90.20
37648;BME280;23490;53.656;10.076;2023-08-12T09:35:57;97270.84;;;-145.95;92.85
37648;BME280;23490;53.656;10.076;2023-08-12T09:38:23;97262.59;;;-145.95;97.73
37648;BME280;23490;53.656;10.076;2023-08-12T09:40:52;97262.59;;;-145.95;98.59
37648;BME280;23490;53.656;10.076;2023-08-12T09:43:17;97299.75;;;-145.95;96.56
37648;BME280;23490;53.656;10.076;2023-08-12T09:45:44;97270.84;;;-145.95;98.58
37648;BME280;23490;53.656;10.076;2023-08-12T09:48:10;97312.13;;;-145.95;98.09
37648;BME280;23490;53.656;10.076;2023-08-12T09:50:36;97316.25;;;-145.95;97.81
37648;BME280;23490;53.656;10.076;2023-08-12T09:53:02;97310.06;;;-145.95;99.17
37648;BME280;23490;53.656;10.076;2023-08-12T09:55:29;97287.38;;;-145.95;97.12
37648;BME280;23490;53.656;10.076;2023-08-12T09:57:57;97308.00;;;-145.95;98.57
37648;BME280;23490;53.656;10.076;2023-08-12T10:00:24;97318.31;;;-145.95;97.62
37648;BME280;23490;53.656;10.076;2023-08-12T10:02:51;97308.00;;;-145.95;99.83
37648;BME280;23490;53.656;10.076;2023-08-12T10:05:27;97316.25;;;-145.95;100.00
37648;BME280;23490;53.656;10.076;2023-08-12T10:07:54;97326.56;;;-145.95;99.68
37648;BME280;23490;53.656;10.076;2023-08-12T10:10:20;97324.50;;;-145.95;99.95
37648;BME280;23490;53.656;10.076;2023-08-12T10:12:48;97343.09;;;-145.95;99.52
37648;BME280;23490;53.656;10.076;2023-08-12T10:15:14;97349.28;;;-145.95;100.00
37648;BME280;23490;53.656;10.076;2023-08-12T10:17:40;97332.78;;;-145.95;100.00
37648;BME280;23490;53.656;10.076;2023-08-12T10:20:07;97357.53;;;-145.95;100.00
37648;BME280;23490;53.656;10.076;2023-08-12T10:22:35;97374.06;;;-145.95;100.00
37648;BME280;23490;53.656;10.076;2023-08-12T10:25:02;97394.69;;;-145.95;100.00
37648;BME280;23490;53.656;10.076;2023-08-12T10:27:28;97396.75;;;-145.95;100.00
37648;BME280;23490;53.656;10.076;2023-08-12T10:29:56;97336.91;;;-145.95;100.00
37648;BME280;23490;53.656;10.076;2023-08-12T10:32:23;97336.91;;;-145.95;100.00
37648;BME280;23490;53.656;10.076;2023-08-12T10:34:54;97361.66;;;-145.95;100.00
37648;BME280;23490;53.656;10.076;2023-08-12T10:37:20;97409.13;;;-145.95;100.00
37648;BME280;23490;53.656;10.076;2023-08-12T10:39:46;97376.13;;;-145.95;100.00
37648;BME280;23490;53.656;10.076;2023-08-12T10:42:11;97270.84;;;-145.95;100.00
37648;BME280;23490;53.656;10.076;2023-08-12T10:44:49;97320.38;;;-145.95;100.00
37648;BME280;23490;53.656;10.076;2023-08-12T10:47:15;97324.50;;;-145.95;100.00
37648;BME280;23490;53.656;10.076;2023-08-12T10:49:48;97291.50;;;-145.95;100.00
37648;BME280;23490;53.656;10.076;2023-08-12T10:52:30;97328.66;;;-145.95;100.00
37648;BME280;23490;53.656;10.076;2023-08-12T10:57:44;97320.38;;;-145.95;100.00
37648;BME280;23490;53.656;10.076;2023-08-12T11:00:24;97305.94;;;-145.95;100.00
37648;BME280;23490;53.656;10.076;2023-08-12T11:02:50;97256.41;;;-145.95;100.00
37648;BME280;23490;53.656;10.076;2023-08-12T11:05:16;97221.31;;;-145.95;99.49
37648;BME280;23490;53.656;10.076;2023-08-12T11:07:46;97163.53;;;-145.95;99.65
37648;BME280;23490;53.656;10.076;2023-08-12T11:10:14;97167.66;;;-145.95;98.38
37648;BME280;23490;53.656;10.076;2023-08-12T11:12:54;97155.28;;;-145.95;94.81
37648;BME280;23490;53.656;10.076;2023-08-12T11:15:34;97204.81;;;-145.95;94.42
37648;BME280;23490;53.656;10.076;2023-08-12T11:18:06;97177.97;;;-145.95;94.82
37648;BME280;23490;53.656;10.076;2023-08-12T11:20:32;97052.09;;;-145.95;92.17
37648;BME280;23490;53.656;10.076;2023-08-12T11:22:58;97072.72;;;-145.95;90.74
37648;BME280;23490;53.656;10.076;2023-08-12T11:25:25;97134.63;;;-145.95;89.61
37648;BME280;23490;53.656;10.076;2023-08-12T11:27:51;97109.88;;;-145.95;94.04
37648;BME280;23490;53.656;10.076;2023-08-12T11:30:18;97085.09;;;-145.95;90.09
37648;BME280;23490;53.656;10.076;2023-08-12T11:32:48;97101.63;;;-145.95;92.56
37648;BME280;23490;53.656;10.076;2023-08-12T11:35:15;97182.09;;;-145.95;93.79
37648;BME280;23490;53.656;10.076;2023-08-12T11:37:42;97147.03;;;-145.95;92.95
37648;BME280;23490;53.656;10.076;2023-08-12T11:40:09;97188.28;;;-145.95;93.15
37648;BME280;23490;53.656;10.076;2023-08-12T11:42:36;97221.31;;;-145.95;93.56
37648;BME280;23490;53.656;10.076;2023-08-12T11:45:03;97246.09;;;-145.95;94.37
37648;BME280;23490;53.656;10.076;2023-08-12T11:47:28;97303.88;;;-145.95;99.03
37648;BME280;23490;53.656;10.076;2023-08-12T11:49:53;97326.56;;;-145.95;98.36
37648;BME280;23490;53.656;10.076;2023-08-12T11:52:19;97295.63;;;-145.95;97.84
37648;BME280;23490;53.656;10.076;2023-08-12T11:54:45;97320.38;;;-145.95;100.00
37648;BME280;23490;53.656;10.076;2023-08-12T11:57:10;97345.16;;;-145.95;99.77
37648;BME280;23490;53.656;10.076;2023-08-12T11:59:36;97305.94;;;-145.95;100.00
37648;BME280;23490;53.656;10.076;2023-08-12T12:02:02;97336.91;;;-145.95;100.00
37648;BME280;23490;53.656;10.076;2023-08-12T12:04:30;97341.03;;;-145.95;100.00
37648;BME280;23490;53.656;10.076;2023-08-12T12:06:56;97361.66;;;-145.95;100.00
37648;BME280;23490;53.656;10.076;2023-08-12T12:09:22;97361.66;;;-145.95;100.00
37648;BME280;23490;53.656;10.076;2023-08-12T12:11:52;97369.91;;;-145.95;100.00
37648;BME280;23490;53.656;10.076;2023-08-12T12:14:17;97386.44;;;-145.95;100.00
37648;BME280;23490;53.656;10.076;2023-08-12T12:16:46;97438.03;;;-145.95;100.00
37648;BME280;23490;53.656;10.076;2023-08-12T12:19:19;97409.13;;;-145.95;100.00
37648;BME280;23490;53.656;10.076;2023-08-12T12:21:47;97433.91;;;-145.95;100.00
37648;BME280;23490;53.656;10.076;2023-08-12T12:24:13;97444.22;;;-145.95;100.00